Time;durP1;ratioP1;P1;durP2;ratioP2;P2;SDS_P1;SDS_P2;PMS_P1;PMS_P2;Temp;Humidity;BMP_temperature;BMP_pressure;BME280_temperature;BME280_humidity;BME280_pressure;Samples;Min_cycle;Max_cycle;Signal;HPM_P1;HPM_P2
2021/03/15 00:01:14;;;;;;;;;;;;;;;5.17;67.61;98828.69;5095121;28;20365;-72
2021/03/15 00:03:43;;;;;;;;;;;;;;;5.17;67.97;98836.28;5094971;28;19924;-72
2021/03/15 00:06:12;;;;;;;;;;;;;;;5.18;67.82;98825.31;5094834;28;19967;-72
2021/03/15 00:08:40;;;;;;;;;;;;;;;5.14;67.80;98827.81;5093736;28;19930;-72
2021/03/15 00:11:08;;;;;;;;;;;;;;;5.12;68.30;98825.28;5094951;28;19924;-72
2021/03/15 00:13:35;;;;;;;;;;;;;;;5.10;68.08;98821.91;5095203;28;19924;-72
2021/03/15 00:16:03;;;;;;;;;;;;;;;5.08;68.15;98815.13;5094262;28;19955;-72
2021/03/15 00:18:31;;;;;;;;;;;;;;;5.05;67.80;98817.63;5094802;28;19951;-72
2021/03/15 00:20:59;;;;;;;;;;;;;;;5.07;68.44;98816.81;5094628;28;19924;-72
2021/03/15 00:23:27;;;;;;;;;;;;;;;5.03;68.24;98814.25;5094690;28;20036;-72
2021/03/15 00:25:55;;;;;;;;;;;;;;;4.99;68.35;98813.38;5094494;28;19924;-72
2021/03/15 00:28:23;;;;;;;;;;;;;;;4.99;67.93;98808.31;5094569;28;19977;-72
2021/03/15 00:30:50;;;;;;;;;;;;;;;4.95;68.23;98814.19;5094502;28;19931;-72
2021/03/15 00:33:18;;;;;;;;;;;;;;;4.91;68.16;98824.28;5094538;28;19924;-72
2021/03/15 00:35:46;;;;;;;;;;;;;;;4.92;68.42;98815.88;5094441;28;20374;-72
2021/03/15 00:38:14;;;;;;;;;;;;;;;4.93;68.76;98812.50;5094474;28;19931;-72
2021/03/15 00:40:42;;;;;;;;;;;;;;;4.93;68.38;98805.75;5094352;28;19963;-72
2021/03/15 00:43:10;;;;;;;;;;;;;;;4.90;68.18;98813.31;5094403;28;19924;-72
2021/03/15 00:45:38;;;;;;;;;;;;;;;4.85;68.56;98802.31;5094361;28;19924;-72
2021/03/15 00:48:06;;;;;;;;;;;;;;;4.82;68.22;98807.38;5094265;28;19924;-72
2021/03/15 00:50:40;;;;;;;;;;;;;;;4.72;68.58;98798.00;5093128;28;19924;-72
2021/03/15 00:53:13;;;;;;;;;;;;;;;4.66;69.14;98805.53;5093083;28;19924;-72
2021/03/15 00:55:40;;;;;;;;;;;;;;;4.68;68.46;98811.44;5094246;28;19959;-72
2021/03/15 00:58:09;;;;;;;;;;;;;;;4.69;68.98;98808.09;5094374;28;19931;-72
2021/03/15 01:00:38;;;;;;;;;;;;;;;4.69;68.62;98808.09;5094197;28;20027;-72
2021/03/15 01:03:16;;;;;;;;;;;;;;;4.66;68.64;98819.03;5093886;28;19924;-72
2021/03/15 01:05:49;;;;;;;;;;;;;;;4.69;68.67;98813.16;5092827;28;19930;-73
2021/03/15 01:08:28;;;;;;;;;;;;;;;4.65;69.39;98819.03;5094120;28;19924;-72
2021/03/15 01:10:58;;;;;;;;;;;;;;;4.68;69.06;98816.50;5092777;28;19946;-72
2021/03/15 01:13:27;;;;;;;;;;;;;;;4.73;69.47;98815.72;5092918;28;19924;-73
2021/03/15 01:15:56;;;;;;;;;;;;;;;4.69;68.88;98823.25;5093994;28;19932;-72
2021/03/15 01:18:24;;;;;;;;;;;;;;;4.59;69.22;98826.53;5094022;28;19959;-72
2021/03/15 01:20:52;;;;;;;;;;;;;;;4.62;69.42;98826.56;5093932;28;20304;-72
2021/03/15 01:23:19;;;;;;;;;;;;;;;4.58;69.08;98830.72;5093968;28;19929;-72
2021/03/15 01:25:50;;;;;;;;;;;;;;;4.60;69.55;98835.81;5093914;28;20016;-72
2021/03/15 01:28:19;;;;;;;;;;;;;;;4.62;69.05;98834.13;5095373;28;19932;-72
2021/03/15 01:30:48;;;;;;;;;;;;;;;4.57;69.05;98834.09;5097984;28;19928;-72
2021/03/15 01:33:17;;;;;;;;;;;;;;;4.44;69.68;98824.69;5098219;28;19924;-72
2021/03/15 01:35:44;;;;;;;;;;;;;;;4.45;69.34;98823.88;5098231;28;20289;-72
2021/03/15 01:38:12;;;;;;;;;;;;;;;4.39;69.83;98828.84;5097880;28;19928;-72
2021/03/15 01:40:40;;;;;;;;;;;;;;;4.35;69.89;98828.81;5097861;28;19969;-72
2021/03/15 01:43:08;;;;;;;;;;;;;;;4.27;69.76;98823.69;5097741;28;19931;-72
2021/03/15 01:45:36;;;;;;;;;;;;;;;4.25;70.15;98824.53;5097732;28;20431;-72
2021/03/15 01:48:06;;;;;;;;;;;;;;;4.30;69.89;98825.38;5097550;28;19924;-72
2021/03/15 01:50:33;;;;;;;;;;;;;;;4.20;70.22;98831.19;5097695;28;20351;-72
2021/03/15 01:53:01;;;;;;;;;;;;;;;4.09;70.64;98828.56;5097489;28;20317;-72
2021/03/15 01:55:29;;;;;;;;;;;;;;;4.14;70.64;98831.13;5097583;28;19952;-72
2021/03/15 01:57:57;;;;;;;;;;;;;;;4.11;70.48;98831.94;5097443;28;19924;-72
2021/03/15 02:00:24;;;;;;;;;;;;;;;4.01;70.25;98825.94;5097446;28;20431;-72
2021/03/15 02:02:55;;;;;;;;;;;;;;;3.88;70.25;98831.69;5097332;28;19928;-72
2021/03/15 02:05:33;;;;;;;;;;;;;;;3.84;71.02;98832.47;5097462;28;19950;-72
2021/03/15 02:08:01;;;;;;;;;;;;;;;3.83;70.75;98835.81;5095903;28;20399;-72
2021/03/15 02:10:29;;;;;;;;;;;;;;;3.72;70.33;98822.22;5097241;28;19969;-72
2021/03/15 02:13:06;;;;;;;;;;;;;;;3.76;71.20;98825.63;5097227;28;20467;-72
2021/03/15 02:15:35;;;;;;;;;;;;;;;3.90;71.15;98819.06;5097182;28;19924;-72
2021/03/15 02:18:08;;;;;;;;;;;;;;;4.03;70.47;98814.16;5097413;28;20018;-72
2021/03/15 02:20:53;;;;;;;;;;;;;;;4.17;71.12;98818.53;5097327;28;20293;-72
2021/03/15 02:23:22;;;;;;;;;;;;;;;4.21;71.02;98822.78;5097071;28;19924;-72
2021/03/15 02:26:01;;;;;;;;;;;;;;;4.26;70.97;98816.09;5097018;28;19931;-72
2021/03/15 02:28:49;;;;;;;;;;;;;;;4.28;70.33;98819.47;5096940;28;20332;-72
2021/03/15 02:31:32;;;;;;;;;;;;;;;4.32;70.79;98821.22;5096875;28;19924;-72
2021/03/15 02:34:10;;;;;;;;;;;;;;;4.36;70.74;98823.81;5095487;28;19924;-72
2021/03/15 02:36:41;;;;;;;;;;;;;;;4.38;70.09;98818.75;5096770;28;20354;-72
2021/03/15 02:39:10;;;;;;;;;;;;;;;4.40;70.00;98833.09;5096302;28;19978;-72
2021/03/15 02:41:41;;;;;;;;;;;;;;;4.43;69.77;98835.66;5096636;28;19959;-72
2021/03/15 02:44:10;;;;;;;;;;;;;;;4.42;69.61;98835.63;5096710;28;20344;-72
2021/03/15 02:46:38;;;;;;;;;;;;;;;4.38;70.02;98828.84;5096405;28;19924;-72
2021/03/15 02:49:08;;;;;;;;;;;;;;;4.32;70.27;98836.38;5096480;28;19977;-72
2021/03/15 02:51:38;;;;;;;;;;;;;;;4.29;69.73;98833.81;5096469;28;19961;-72
2021/03/15 02:54:08;;;;;;;;;;;;;;;4.27;70.54;98833.78;5095288;28;19953;-72
2021/03/15 02:56:39;;;;;;;;;;;;;;;4.24;70.35;98837.97;5096375;28;19928;-72
2021/03/15 02:59:08;;;;;;;;;;;;;;;4.23;70.16;98836.25;5096441;28;19924;-72
2021/03/15 03:01:37;;;;;;;;;;;;;;;4.23;70.36;98836.25;5096279;28;19928;-72
2021/03/15 03:04:08;;;;;;;;;;;;;;;4.14;70.42;98836.16;5096161;28;19924;-72
2021/03/15 03:06:36;;;;;;;;;;;;;;;4.10;70.98;98836.97;5096031;28;19931;-72
2021/03/15 03:09:10;;;;;;;;;;;;;;;4.13;70.80;98840.38;5096008;28;19924;-72
2021/03/15 03:11:38;;;;;;;;;;;;;;;4.08;70.98;98837.78;5096512;28;19924;-72
2021/03/15 03:14:07;;;;;;;;;;;;;;;4.20;71.13;98834.56;5095963;28;19946;-72
2021/03/15 03:16:35;;;;;;;;;;;;;;;4.28;70.89;98834.63;5096324;28;20373;-72
2021/03/15 03:19:04;;;;;;;;;;;;;;;4.22;70.19;98835.44;5095884;28;19928;-72
2021/03/15 03:21:32;;;;;;;;;;;;;;;4.26;70.64;98831.25;5095889;28;19932;-72
2021/03/15 03:24:02;;;;;;;;;;;;;;;4.29;70.21;98836.34;5095779;28;20386;-72
2021/03/15 03:26:33;;;;;;;;;;;;;;;4.30;70.28;98828.78;5095833;28;19950;-72
2021/03/15 03:29:01;;;;;;;;;;;;;;;4.27;70.27;98827.91;5095529;28;20023;-72
2021/03/15 03:31:31;;;;;;;;;;;;;;;4.27;70.62;98827.91;5094520;28;19955;-72
2021/03/15 03:33:59;;;;;;;;;;;;;;;4.27;70.75;98826.22;5095928;28;19966;-72
2021/03/15 03:36:27;;;;;;;;;;;;;;;4.21;70.75;98825.31;5095628;28;20332;-72
2021/03/15 03:38:54;;;;;;;;;;;;;;;4.16;71.14;98830.31;5095568;28;20332;-72
2021/03/15 03:41:23;;;;;;;;;;;;;;;4.11;71.23;98826.03;5095738;28;19924;-72
2021/03/15 03:44:07;;;;;;;;;;;;;;;4.11;71.34;98836.13;5095519;28;19950;-72
2021/03/15 03:46:34;;;;;;;;;;;;;;;4.12;71.36;98832.78;5095266;28;19924;-72
2021/03/15 03:49:05;;;;;;;;;;;;;;;4.05;70.86;98832.69;5095281;28;20285;-72
2021/03/15 03:51:42;;;;;;;;;;;;;;;4.07;71.45;98831.06;5094342;28;20366;-72
2021/03/15 03:54:13;;;;;;;;;;;;;;;4.12;71.29;98820.16;5095352;28;19931;-72
2021/03/15 03:57:01;;;;;;;;;;;;;;;4.10;71.04;98820.16;5094006;28;19924;-72
2021/03/15 03:59:35;;;;;;;;;;;;;;;4.00;71.59;98816.69;5095193;28;19935;-72
2021/03/15 04:02:04;;;;;;;;;;;;;;;3.94;71.29;98819.13;5095126;28;19924;-72
2021/03/15 04:04:34;;;;;;;;;;;;;;;3.87;71.87;98813.97;5095086;28;19958;-72
2021/03/15 04:07:02;;;;;;;;;;;;;;;3.82;72.06;98818.97;5094680;28;19935;-72
2021/03/15 04:09:31;;;;;;;;;;;;;;;3.81;71.62;98817.31;5094829;28;19924;-72
2021/03/15 04:12:02;;;;;;;;;;;;;;;3.83;71.37;98814.78;5095223;28;20023;-72
2021/03/15 04:14:32;;;;;;;;;;;;;;;3.89;72.03;98825.78;5094769;28;19924;-72
2021/03/15 04:17:02;;;;;;;;;;;;;;;3.83;71.35;98814.78;5093956;28;19993;-72
2021/03/15 04:19:32;;;;;;;;;;;;;;;3.81;71.90;98816.44;5094858;28;19975;-72
2021/03/15 04:22:10;;;;;;;;;;;;;;;3.78;72.03;98822.31;5094765;28;19931;-72
2021/03/15 04:24:57;;;;;;;;;;;;;;;3.77;71.38;98815.56;5094692;28;19924;-72
2021/03/15 04:27:25;;;;;;;;;;;;;;;3.79;70.91;98813.88;5093516;28;20019;-72
2021/03/15 04:29:53;;;;;;;;;;;;;;;3.87;71.71;98816.50;5094890;28;20322;-72
2021/03/15 04:32:24;;;;;;;;;;;;;;;3.94;71.75;98814.06;5094494;28;19992;-72
2021/03/15 04:34:53;;;;;;;;;;;;;;;4.01;71.35;98818.38;5094600;28;19972;-72
2021/03/15 04:37:21;;;;;;;;;;;;;;;4.06;70.75;98814.22;5094358;28;20378;-72
2021/03/15 04:39:49;;;;;;;;;;;;;;;4.08;71.35;98807.50;5094660;28;19962;-72
2021/03/15 04:42:18;;;;;;;;;;;;;;;4.10;71.49;98820.16;5094896;28;20373;-72
2021/03/15 04:44:46;;;;;;;;;;;;;;;4.14;71.06;98811.78;5094433;28;19928;-72
2021/03/15 04:47:15;;;;;;;;;;;;;;;4.07;71.43;98813.41;5094335;28;19924;-72
2021/03/15 04:49:47;;;;;;;;;;;;;;;3.99;71.32;98817.50;5094217;28;20013;-72
2021/03/15 04:52:16;;;;;;;;;;;;;;;4.02;71.64;98816.69;5094368;28;19931;-72
2021/03/15 04:54:44;;;;;;;;;;;;;;;4.07;71.45;98820.97;5094221;28;19931;-72
2021/03/15 04:57:14;;;;;;;;;;;;;;;4.10;71.67;98814.25;5094250;28;20374;-72
2021/03/15 04:59:42;;;;;;;;;;;;;;;4.04;71.39;98808.31;5094132;28;19928;-72
2021/03/15 05:02:10;;;;;;;;;;;;;;;3.99;71.38;98822.56;5094048;28;19924;-72
2021/03/15 05:04:39;;;;;;;;;;;;;;;4.01;71.77;98818.38;5094008;28;20009;-72
2021/03/15 05:07:08;;;;;;;;;;;;;;;3.96;72.01;98822.50;5093866;28;19930;-72
2021/03/15 05:09:51;;;;;;;;;;;;;;;3.91;71.92;98824.13;5094304;28;19963;-72
2021/03/15 05:12:19;;;;;;;;;;;;;;;3.78;72.25;98817.25;5094096;28;19924;-72
2021/03/15 05:14:48;;;;;;;;;;;;;;;3.70;72.20;98823.88;5093973;28;20370;-72
2021/03/15 05:17:16;;;;;;;;;;;;;;;3.66;71.92;98829.72;5094065;28;19977;-72
2021/03/15 05:19:44;;;;;;;;;;;;;;;3.70;72.33;98833.13;5093846;28;20278;-72
2021/03/15 05:22:13;;;;;;;;;;;;;;;3.76;72.19;98830.69;5093951;28;19928;-72
2021/03/15 05:24:42;;;;;;;;;;;;;;;3.89;72.17;98835.88;5093891;28;19947;-72
2021/03/15 05:27:11;;;;;;;;;;;;;;;3.85;72.49;98821.56;5093899;28;19994;-72
2021/03/15 05:29:40;;;;;;;;;;;;;;;3.75;72.50;98819.75;5093810;28;19932;-72
2021/03/15 05:32:08;;;;;;;;;;;;;;;3.73;72.78;98821.41;5093846;28;19974;-72
2021/03/15 05:34:39;;;;;;;;;;;;;;;3.81;72.92;98816.44;5094215;28;19924;-72
2021/03/15 05:37:09;;;;;;;;;;;;;;;3.85;72.53;98813.97;5093850;28;19931;-72
2021/03/15 05:39:38;;;;;;;;;;;;;;;3.88;72.63;98803.94;5094072;28;19994;-72
2021/03/15 05:42:15;;;;;;;;;;;;;;;3.85;71.84;98798.84;5093740;28;19954;-72
2021/03/15 05:44:54;;;;;;;;;;;;;;;3.87;72.30;98804.75;5092655;28;19924;-72
2021/03/15 05:47:32;;;;;;;;;;;;;;;4.01;72.63;98810.78;5093697;28;19928;-72
2021/03/15 05:50:14;;;;;;;;;;;;;;;4.15;72.20;98815.16;5093695;28;19924;-72
2021/03/15 05:53:00;;;;;;;;;;;;;;;4.07;72.19;98810.88;5093581;28;19935;-72
2021/03/15 05:55:39;;;;;;;;;;;;;;;3.97;71.50;98816.66;5093633;28;20002;-72
2021/03/15 05:58:16;;;;;;;;;;;;;;;3.95;71.66;98820.84;5092448;28;19924;-72
2021/03/15 06:00:56;;;;;;;;;;;;;;;4.04;72.38;98820.94;5093644;28;19924;-72
2021/03/15 06:03:37;;;;;;;;;;;;;;;4.14;71.52;98815.97;5093849;28;19928;-72
2021/03/15 06:06:08;;;;;;;;;;;;;;;4.22;72.04;98822.81;5093399;28;20374;-72
2021/03/15 06:08:39;;;;;;;;;;;;;;;4.26;71.89;98826.19;5093474;28;19960;-72
2021/03/15 06:11:09;;;;;;;;;;;;;;;4.24;71.57;98828.72;5093595;28;20456;-72
2021/03/15 06:13:37;;;;;;;;;;;;;;;4.21;71.01;98832.88;5094096;28;20039;-72
2021/03/15 06:16:05;;;;;;;;;;;;;;;4.30;71.15;98832.97;5097206;28;19930;-72
2021/03/15 06:18:33;;;;;;;;;;;;;;;4.36;70.96;98838.94;5097051;28;19924;-72
2021/03/15 06:21:01;;;;;;;;;;;;;;;4.44;71.45;98836.50;5097061;28;20374;-72
2021/03/15 06:23:29;;;;;;;;;;;;;;;4.60;71.25;98830.75;5097261;28;20014;-72
2021/03/15 06:25:57;;;;;;;;;;;;;;;4.82;70.97;98826.75;5096932;28;20344;-72
2021/03/15 06:28:26;;;;;;;;;;;;;;;4.92;70.41;98836.91;5096905;28;19970;-72
2021/03/15 06:30:54;;;;;;;;;;;;;;;5.07;70.30;98837.03;5096828;28;19985;-72
2021/03/15 06:33:23;;;;;;;;;;;;;;;5.16;70.06;98826.97;5096885;28;19936;-73
2021/03/15 06:35:57;;;;;;;;;;;;;;;5.20;69.57;98831.25;5096754;28;19931;-72
2021/03/15 06:38:25;;;;;;;;;;;;;;;5.23;69.38;98826.19;5097134;28;20258;-72
2021/03/15 06:40:59;;;;;;;;;;;;;;;5.26;68.83;98836.34;5096671;28;19931;-72
2021/03/15 06:43:28;;;;;;;;;;;;;;;5.36;68.61;98830.50;5096625;28;19950;-72
2021/03/15 06:45:56;;;;;;;;;;;;;;;5.40;68.43;98832.19;5096528;28;20270;-72
2021/03/15 06:48:25;;;;;;;;;;;;;;;5.43;67.99;98831.38;5096503;28;19939;-72
2021/03/15 06:50:54;;;;;;;;;;;;;;;5.38;67.85;98827.97;5096514;28;20014;-72
2021/03/15 06:53:21;;;;;;;;;;;;;;;5.46;67.91;98838.13;5096463;28;20335;-72
2021/03/15 06:55:50;;;;;;;;;;;;;;;5.53;67.53;98839.88;5096226;28;19924;-72
2021/03/15 06:58:23;;;;;;;;;;;;;;;5.57;67.67;98846.63;5096369;28;19967;-72
2021/03/15 07:01:11;;;;;;;;;;;;;;;5.62;67.40;98837.38;5096283;28;20385;-72
2021/03/15 07:03:40;;;;;;;;;;;;;;;5.83;67.37;98837.50;5096278;28;19924;-73
2021/03/15 07:06:08;;;;;;;;;;;;;;;6.12;67.15;98835.94;5095814;28;19936;-72
2021/03/15 07:08:36;;;;;;;;;;;;;;;6.31;66.65;98839.41;5096083;28;19931;-72
2021/03/15 07:11:20;;;;;;;;;;;;;;;6.51;66.56;98835.19;5096051;28;20289;-72
2021/03/15 07:13:48;;;;;;;;;;;;;;;6.64;65.52;98840.31;5094820;28;19928;-73
2021/03/15 07:16:24;;;;;;;;;;;;;;;6.79;64.91;98833.56;5095943;28;20362;-72
2021/03/15 07:18:52;;;;;;;;;;;;;;;6.94;64.52;98836.06;5095148;28;19928;-72
2021/03/15 07:21:30;;;;;;;;;;;;;;;7.14;64.17;98839.47;5095886;28;20491;-72
2021/03/15 07:23:59;;;;;;;;;;;;;;;7.37;63.81;98837.72;5095746;28;20031;-72
2021/03/15 07:26:27;;;;;;;;;;;;;;;7.53;63.06;98834.34;5095818;28;19970;-73
2021/03/15 07:28:55;;;;;;;;;;;;;;;7.71;62.32;98834.28;5095540;28;19924;-73
2021/03/15 07:31:25;;;;;;;;;;;;;;;7.87;61.78;98835.91;5095579;28;19932;-73
2021/03/15 07:34:04;;;;;;;;;;;;;;;7.96;60.96;98833.34;5095625;28;20301;-72
2021/03/15 07:36:33;;;;;;;;;;;;;;;8.04;60.97;98823.97;5095530;28;19924;-73
2021/03/15 07:39:07;;;;;;;;;;;;;;;8.13;61.34;98827.34;5095501;28;19924;-72
2021/03/15 07:41:45;;;;;;;;;;;;;;;8.21;60.97;98821.34;5095280;28;20039;-73
2021/03/15 07:44:18;;;;;;;;;;;;;;;8.52;60.89;98819.50;5095465;28;19963;-72
2021/03/15 07:46:47;;;;;;;;;;;;;;;8.79;60.14;98821.88;5095296;28;19924;-73
2021/03/15 07:49:35;;;;;;;;;;;;;;;8.95;59.13;98812.44;5095240;28;20357;-73
2021/03/15 07:52:04;;;;;;;;;;;;;;;9.08;58.04;98819.94;5095262;28;19960;-72
2021/03/15 07:54:32;;;;;;;;;;;;;;;9.19;57.84;98823.22;5095138;28;19931;-72
2021/03/15 07:57:11;;;;;;;;;;;;;;;9.36;57.21;98820.50;5094944;28;20275;-72
2021/03/15 07:59:40;;;;;;;;;;;;;;;9.45;56.52;98818.72;5095208;28;19924;-72
2021/03/15 08:02:13;;;;;;;;;;;;;;;9.71;56.27;98828.66;5095143;28;19924;-72
2021/03/15 08:04:41;;;;;;;;;;;;;;;9.91;55.33;98826.69;5095077;28;19925;-72
2021/03/15 08:07:09;;;;;;;;;;;;;;;9.99;54.42;98824.06;5093512;28;19931;-73
2021/03/15 08:09:36;;;;;;;;;;;;;;;10.06;54.39;98829.06;5094706;28;20355;-72
2021/03/15 08:12:08;;;;;;;;;;;;;;;10.19;53.77;98824.69;5094515;28;19931;-73
2021/03/15 08:14:36;;;;;;;;;;;;;;;10.27;53.47;98820.31;5094834;28;20358;-73
2021/03/15 08:17:05;;;;;;;;;;;;;;;10.29;53.61;98823.72;5094751;28;19989;-72
2021/03/15 08:19:35;;;;;;;;;;;;;;;10.04;52.80;98822.31;5094531;28;19943;-72
2021/03/15 08:22:04;;;;;;;;;;;;;;;10.03;53.18;98816.34;5094694;28;19928;-73
2021/03/15 08:24:33;;;;;;;;;;;;;;;10.05;52.98;98813.81;5094657;28;20053;-73
2021/03/15 08:27:02;;;;;;;;;;;;;;;9.96;52.56;98803.69;5094567;28;20344;-73
2021/03/15 08:29:33;;;;;;;;;;;;;;;10.07;52.21;98799.31;5094508;28;19924;-73
2021/03/15 08:32:01;;;;;;;;;;;;;;;10.12;52.48;98797.59;5094583;28;19960;-72
2021/03/15 08:34:30;;;;;;;;;;;;;;;10.20;52.44;98798.31;5094495;28;20385;-72
2021/03/15 08:37:03;;;;;;;;;;;;;;;10.35;53.10;98803.22;5094273;28;20005;-72
2021/03/15 08:39:32;;;;;;;;;;;;;;;10.35;52.21;98803.22;5094367;28;20332;-72
2021/03/15 08:42:10;;;;;;;;;;;;;;;10.17;51.66;98790.72;5094134;28;19924;-73
2021/03/15 08:44:58;;;;;;;;;;;;;;;9.94;51.58;98800.34;5094285;28;19931;-73
2021/03/15 08:47:37;;;;;;;;;;;;;;;9.83;52.03;98794.53;5094321;28;20029;-73
2021/03/15 08:50:20;;;;;;;;;;;;;;;9.78;52.29;98786.09;5094495;28;19928;-73
2021/03/15 08:52:49;;;;;;;;;;;;;;;9.94;52.25;98790.13;5094040;28;19928;-73
2021/03/15 08:55:44;;;;;;;;;;;;;;;9.89;52.48;98786.78;5093955;28;19973;-73
2021/03/15 08:58:22;;;;;;;;;;;;;;;9.95;52.05;98792.69;5094190;28;19925;-73
2021/03/15 09:00:55;;;;;;;;;;;;;;;10.03;51.61;98774.72;5094048;28;20370;-73
2021/03/15 09:03:38;;;;;;;;;;;;;;;10.19;50.93;98776.25;5094170;28;20023;-73
2021/03/15 09:06:06;;;;;;;;;;;;;;;10.38;51.15;98772.56;5093621;28;20293;-72
2021/03/15 09:08:49;;;;;;;;;;;;;;;10.66;50.84;98778.94;5093986;28;19993;-73
2021/03/15 09:11:32;;;;;;;;;;;;;;;10.74;49.88;98771.16;5085974;28;20457;-72
2021/03/15 09:14:14;;;;;;;;;;;;;;;10.71;49.33;98766.94;5093883;28;20295;-72
2021/03/15 09:16:43;;;;;;;;;;;;;;;10.88;48.91;98773.47;5093731;28;20271;-72
2021/03/15 09:19:16;;;;;;;;;;;;;;;11.15;48.84;98766.22;5093910;28;19963;-72
2021/03/15 09:21:56;;;;;;;;;;;;;;;11.47;48.42;98767.34;5093922;28;19924;-72
2021/03/15 09:24:34;;;;;;;;;;;;;;;11.44;47.22;98770.78;5093997;28;19928;-72
2021/03/15 09:27:03;;;;;;;;;;;;;;;11.03;46.78;98770.69;5093918;28;19928;-72
2021/03/15 09:29:31;;;;;;;;;;;;;;;11.07;46.98;98774.84;5093820;28;19924;-73
2021/03/15 09:32:01;;;;;;;;;;;;;;;11.37;47.16;98772.59;5093855;28;19924;-72
2021/03/15 09:34:28;;;;;;;;;;;;;;;11.58;46.59;98763.69;5094056;28;20381;-72
2021/03/15 09:36:58;;;;;;;;;;;;;;;11.78;46.29;98764.16;5093815;28;19970;-72
2021/03/15 09:39:27;;;;;;;;;;;;;;;11.69;45.32;98766.91;5093687;28;19970;-72
2021/03/15 09:41:58;;;;;;;;;;;;;;;11.32;45.49;98759.09;5093799;28;19930;-72
2021/03/15 09:44:27;;;;;;;;;;;;;;;11.45;44.74;98762.22;5093703;28;19948;-72
2021/03/15 09:46:58;;;;;;;;;;;;;;;11.37;44.71;98764.09;5093753;28;19924;-72
2021/03/15 09:49:38;;;;;;;;;;;;;;;11.42;44.72;98755.47;5094062;28;19931;-73
2021/03/15 09:52:11;;;;;;;;;;;;;;;11.69;44.69;98764.34;5097710;28;19989;-71
2021/03/15 09:54:47;;;;;;;;;;;;;;;11.81;44.40;98753.03;5096346;28;20063;-72
2021/03/15 09:57:16;;;;;;;;;;;;;;;11.87;43.81;98760.59;5097561;28;19924;-72
2021/03/15 10:00:06;;;;;;;;;;;;;;;12.06;44.58;98751.66;5097720;28;19924;-72
2021/03/15 10:02:41;;;;;;;;;;;;;;;11.98;43.75;98749.25;5097725;28;20034;-71
2021/03/15 10:05:21;;;;;;;;;;;;;;;11.84;43.19;98750.41;5097389;28;19993;-72
2021/03/15 10:08:00;;;;;;;;;;;;;;;11.78;43.60;98740.34;5097115;28;20298;-72
2021/03/15 10:10:38;;;;;;;;;;;;;;;11.43;43.39;98748.66;5097472;28;19928;-71
2021/03/15 10:13:17;;;;;;;;;;;;;;;11.36;44.09;98749.63;5097232;28;20290;-72
2021/03/15 10:16:11;;;;;;;;;;;;;;;11.24;43.97;98744.75;5097084;28;19950;-71
2021/03/15 10:18:59;;;;;;;;;;;;;;;10.62;44.51;98741.59;5097051;28;20297;-72
2021/03/15 10:21:30;;;;;;;;;;;;;;;10.88;45.17;98737.75;5097010;28;20019;-71
2021/03/15 10:24:04;;;;;;;;;;;;;;;11.49;45.31;98725.56;5079314;28;19932;-71
2021/03/15 10:26:32;;;;;;;;;;;;;;;11.73;44.52;98727.66;5095788;28;19946;-72
2021/03/15 10:29:00;;;;;;;;;;;;;;;11.63;44.68;98715.88;5096866;28;19960;-72
2021/03/15 10:31:38;;;;;;;;;;;;;;;11.34;44.32;98724.13;5095667;28;20413;-72
2021/03/15 10:34:08;;;;;;;;;;;;;;;11.20;44.16;98715.06;5096046;28;19924;-72
2021/03/15 10:37:03;;;;;;;;;;;;;;;11.06;44.00;98706.81;5096628;28;20019;-72
2021/03/15 10:39:45;;;;;;;;;;;;;;;11.01;44.75;98703.50;5095907;28;19931;-72
2021/03/15 10:42:13;;;;;;;;;;;;;;;11.04;45.18;98703.41;5096946;28;20336;-71
2021/03/15 10:44:41;;;;;;;;;;;;;;;11.03;45.68;98701.75;5095370;28;19931;-72
2021/03/15 10:47:13;;;;;;;;;;;;;;;11.07;45.84;98695.69;5095429;28;19952;-71
2021/03/15 10:49:48;;;;;;;;;;;;;;;11.08;45.72;98697.41;5095328;28;19928;-72
2021/03/15 10:52:36;;;;;;;;;;;;;;;10.84;45.44;98700.41;5096275;28;20401;-71
2021/03/15 10:55:15;;;;;;;;;;;;;;;10.69;46.29;98702.34;5095368;28;19924;-71
2021/03/15 10:57:56;;;;;;;;;;;;;;;10.59;46.66;98697.41;5095319;28;19924;-72
2021/03/15 11:00:25;;;;;;;;;;;;;;;10.50;47.46;98698.41;5094876;28;20293;-71
2021/03/15 11:02:55;;;;;;;;;;;;;;;10.39;47.46;98702.00;5095524;28;19930;-72
2021/03/15 11:05:23;;;;;;;;;;;;;;;10.30;47.50;98695.31;5095211;28;19924;-71
2021/03/15 11:07:53;;;;;;;;;;;;;;;10.30;47.01;98697.88;5094732;28;19993;-72
2021/03/15 11:10:27;;;;;;;;;;;;;;;10.43;47.07;98694.28;5094898;28;20026;-72
2021/03/15 11:13:14;;;;;;;;;;;;;;;10.76;46.98;98693.72;5095021;28;19924;-71
2021/03/15 11:15:43;;;;;;;;;;;;;;;10.95;46.34;98686.56;5094910;28;19924;-72
2021/03/15 11:18:22;;;;;;;;;;;;;;;10.83;45.00;98683.38;5094839;28;19931;-72
2021/03/15 11:20:55;;;;;;;;;;;;;;;10.73;45.52;98678.44;5095995;28;19931;-71
2021/03/15 11:23:37;;;;;;;;;;;;;;;10.67;45.21;98678.56;5094772;28;20296;-71
2021/03/15 11:26:17;;;;;;;;;;;;;;;10.41;44.85;98673.06;5094621;28;19928;-72
2021/03/15 11:28:48;;;;;;;;;;;;;;;10.15;44.77;98670.06;5096024;28;19950;-71
2021/03/15 11:31:20;;;;;;;;;;;;;;;10.06;45.84;98671.00;5094602;28;19924;-71
2021/03/15 11:33:51;;;;;;;;;;;;;;;10.07;46.32;98675.25;5095387;28;19924;-72
2021/03/15 11:36:31;;;;;;;;;;;;;;;10.03;46.13;98673.59;5095729;28;19924;-72
2021/03/15 11:39:14;;;;;;;;;;;;;;;9.88;46.24;98663.66;5094446;28;19931;-72
2021/03/15 11:41:54;;;;;;;;;;;;;;;9.83;46.99;98669.66;5094438;28;19928;-72
2021/03/15 11:44:24;;;;;;;;;;;;;;;9.78;46.92;98671.44;5095542;28;20022;-72
2021/03/15 11:46:52;;;;;;;;;;;;;;;9.70;46.53;98678.34;5094558;28;19924;-71
2021/03/15 11:49:27;;;;;;;;;;;;;;;9.61;46.43;98673.38;5094131;28;19924;-71
2021/03/15 11:52:23;;;;;;;;;;;;;;;9.49;47.00;98679.47;5095242;28;19931;-72
2021/03/15 11:55:08;;;;;;;;;;;;;;;9.50;47.36;98670.13;5094063;28;19952;-72
2021/03/15 11:57:38;;;;;;;;;;;;;;;9.49;47.38;98673.53;5094006;28;19924;-71
2021/03/15 12:00:07;;;;;;;;;;;;;;;9.49;47.40;98663.34;5094865;28;19950;-71
2021/03/15 12:02:44;;;;;;;;;;;;;;;9.55;47.52;98666.63;5095205;28;19935;-72
2021/03/15 12:05:32;;;;;;;;;;;;;;;9.64;47.34;98658.91;5095000;28;20396;-72
2021/03/15 12:08:12;;;;;;;;;;;;;;;9.69;46.33;98656.28;5093749;28;19924;-71
2021/03/15 12:10:43;;;;;;;;;;;;;;;9.61;46.73;98653.84;5095475;27;19977;-71
2021/03/15 12:13:14;;;;;;;;;;;;;;;9.66;45.58;98643.59;5093211;28;19978;-71
2021/03/15 12:15:45;;;;;;;;;;;;;;;9.76;45.37;98638.34;5094080;28;19969;-72
2021/03/15 12:18:15;;;;;;;;;;;;;;;9.78;45.41;98640.88;5093692;28;19931;-72
2021/03/15 12:20:49;;;;;;;;;;;;;;;9.84;45.25;98639.06;5093612;28;19924;-71
2021/03/15 12:23:17;;;;;;;;;;;;;;;10.00;45.06;98632.88;5094697;28;20324;-71
2021/03/15 12:25:46;;;;;;;;;;;;;;;10.02;44.34;98635.41;5077000;28;19924;-71
2021/03/15 12:28:25;;;;;;;;;;;;;;;10.11;43.08;98630.16;5094754;28;19973;-71
2021/03/15 12:30:59;;;;;;;;;;;;;;;10.08;43.18;98631.03;5093425;28;20293;-71
2021/03/15 12:33:27;;;;;;;;;;;;;;;10.11;43.30;98625.06;5094519;28;19930;-72
2021/03/15 12:35:55;;;;;;;;;;;;;;;10.18;43.09;98626.69;5094622;28;19924;-72
2021/03/15 12:38:23;;;;;;;;;;;;;;;10.20;42.90;98614.75;5094365;28;19969;-72
2021/03/15 12:40:52;;;;;;;;;;;;;;;10.29;42.41;98612.06;5093273;28;19924;-71
2021/03/15 12:43:22;;;;;;;;;;;;;;;10.47;41.88;98606.63;5093364;28;19931;-72
2021/03/15 12:46:08;;;;;;;;;;;;;;;10.84;41.40;98608.50;5093490;28;19977;-71
2021/03/15 12:48:37;;;;;;;;;;;;;;;10.66;41.03;98610.53;5093175;28;20385;-71
2021/03/15 12:51:06;;;;;;;;;;;;;;;11.01;41.93;98607.31;5093034;28;19928;-72
2021/03/15 12:53:35;;;;;;;;;;;;;;;11.08;40.93;98600.38;5093126;28;19935;-71
2021/03/15 12:56:16;;;;;;;;;;;;;;;10.80;40.86;98609.44;5093103;28;20015;-71
2021/03/15 12:58:46;;;;;;;;;;;;;;;10.61;41.21;98607.22;5093014;28;19974;-71
2021/03/15 13:01:24;;;;;;;;;;;;;;;10.33;42.45;98606.03;5094418;28;19955;-71
2021/03/15 13:03:55;;;;;;;;;;;;;;;10.24;42.28;98605.34;5092926;28;19924;-71
2021/03/15 13:06:27;;;;;;;;;;;;;;;10.07;42.79;98597.94;5092230;28;19932;-72
2021/03/15 13:09:03;;;;;;;;;;;;;;;10.08;43.46;98599.59;5093868;28;19924;-72
2021/03/15 13:11:44;;;;;;;;;;;;;;;10.04;42.35;98597.97;5094103;28;20023;-72
2021/03/15 13:14:23;;;;;;;;;;;;;;;9.99;43.28;98600.59;5094017;28;19924;-71
2021/03/15 13:16:59;;;;;;;;;;;;;;;10.10;43.50;98603.00;5094015;28;20378;-72
2021/03/15 13:19:29;;;;;;;;;;;;;;;10.28;43.26;98601.88;5092859;28;19985;-71